Ginga — JJ4054 — position and weather

sailwx.info

Track history (hours):
 
Tides and Currents Weather Stations Pressure Air Temp Water Temp Dewpoint Dewpoint Depression Visibility Wind Speed Wind Dir Waves Ship Positions

Ginga

Last reported at 2016-Jun-28 03:33 UTC. Time now 2016-Jun-28 09:49 UTC.
Position N 34°38' E 135°09'.

Length 28 m; draft 1.6 m.

Type: Other ship. MMSI: 431301704.

Date/timePositionNaut miles runAvg speedWind from/ knotsBaromVisibWave heightAir tempDewpointWater temp
2016-Jun-28 03:33N 34°38' E 135°09'8 6.6
2016-Jun-28 02:16N 34°38' E 134°59'2 0.2
2016-Jun-27 18:32N 34°37' E 134°57'8 8.1
2016-Jun-27 17:34N 34°35' E 135°06'5 4.7
2016-Jun-27 16:33N 34°39' E 135°09'0 0.0
2016-Jun-27 08:06N 34°39' E 135°09'610.8
2016-Jun-27 07:33N 34°35' E 135°04'3 2.9
2016-Jun-27 06:31N 34°38' E 135°02'6 0.2
2016-Jun-25 23:12N 34°39' E 135°09'811.5
2016-Jun-25 22:29N 34°38' E 134°59'4 4.0
2016-Jun-25 21:33N 34°36' E 135°03'5 5.3
2016-Jun-25 20:34N 34°32' E 135°08'13 4.5
2016-Jun-25 17:33N 34°21' E 134°60'1615.7
2016-Jun-25 16:34N 34°35' E 135°08'5 0.4
2016-Jun-25 03:33N 34°39' E 135°10'12 8.8
2016-Jun-25 02:14N 34°36' E 134°56'3 0.5
2016-Jun-24 19:33N 34°38' E 134°60'3 3.2
2016-Jun-24 18:34N 34°36' E 135°03'6 6.1
2016-Jun-24 17:33N 34°39' E 135°10'5 0.2
2016-Jun-23 19:33N 34°37' E 135°04'1 1.2
2016-Jun-23 18:33N 34°36' E 135°04'19 2.9
2016-Jun-23 12:06N 34°18' E 134°57'5 7.7
2016-Jun-23 11:26N 34°23' E 135°00'1112.4
2016-Jun-23 10:33N 34°33' E 135°06'9 0.3
2016-Jun-21 23:17N 34°36' E 134°55'811.0
2016-Jun-21 22:33N 34°35' E 135°05'5 4.8
2016-Jun-21 21:33N 34°31' E 135°07'14 1.2
2016-Jun-21 09:29N 34°19' E 134°58'1313.6
2016-Jun-21 08:33N 34°30' E 135°05'10 0.3
2016-Jun-20 02:22N 34°36' E 134°56'8 9.3
2016-Jun-20 01:33N 34°35' E 135°05'6 5.8
2016-Jun-20 00:33N 34°30' E 135°08'9 0.5
2016-Jun-19 06:26N 34°23' E 134°60'1112.5
2016-Jun-19 05:33N 34°33' E 135°06'  
Track history (hours):
 
Tides and Currents Weather Stations Pressure Air Temp Water Temp Dewpoint Dewpoint Depression Visibility Wind Speed Wind Dir Waves Ship Positions

Ginga

Last reported at 2016-Jun-28 03:33 UTC. Time now 2016-Jun-28 09:49 UTC.
Position N 34°38' E 135°09'.

Length 28 m; draft 1.6 m.

Type: Other ship. MMSI: 431301704.

Date/timePositionNaut miles runAvg speedWind from/ knotsBaromVisibWave heightAir tempDewpointWater temp
2016-Jun-28 03:33N 34°38' E 135°09'8 6.6
2016-Jun-28 02:16N 34°38' E 134°59'2 0.2
2016-Jun-27 18:32N 34°37' E 134°57'8 8.1
2016-Jun-27 17:34N 34°35' E 135°06'5 4.7
2016-Jun-27 16:33N 34°39' E 135°09'0 0.0
2016-Jun-27 08:06N 34°39' E 135°09'610.8
2016-Jun-27 07:33N 34°35' E 135°04'3 2.9
2016-Jun-27 06:31N 34°38' E 135°02'6 0.2
2016-Jun-25 23:12N 34°39' E 135°09'811.5
2016-Jun-25 22:29N 34°38' E 134°59'4 4.0
2016-Jun-25 21:33N 34°36' E 135°03'5 5.3
2016-Jun-25 20:34N 34°32' E 135°08'13 4.5
2016-Jun-25 17:33N 34°21' E 134°60'1615.7
2016-Jun-25 16:34N 34°35' E 135°08'5 0.4
2016-Jun-25 03:33N 34°39' E 135°10'12 8.8
2016-Jun-25 02:14N 34°36' E 134°56'3 0.5
2016-Jun-24 19:33N 34°38' E 134°60'3 3.2
2016-Jun-24 18:34N 34°36' E 135°03'6 6.1
2016-Jun-24 17:33N 34°39' E 135°10'5 0.2
2016-Jun-23 19:33N 34°37' E 135°04'1 1.2
2016-Jun-23 18:33N 34°36' E 135°04'19 2.9
2016-Jun-23 12:06N 34°18' E 134°57'5 7.7
2016-Jun-23 11:26N 34°23' E 135°00'1112.4
2016-Jun-23 10:33N 34°33' E 135°06'9 0.3
2016-Jun-21 23:17N 34°36' E 134°55'811.0
2016-Jun-21 22:33N 34°35' E 135°05'5 4.8
2016-Jun-21 21:33N 34°31' E 135°07'14 1.2
2016-Jun-21 09:29N 34°19' E 134°58'1313.6
2016-Jun-21 08:33N 34°30' E 135°05'10 0.3
2016-Jun-20 02:22N 34°36' E 134°56'8 9.3
2016-Jun-20 01:33N 34°35' E 135°05'6 5.8
2016-Jun-20 00:33N 34°30' E 135°08'9 0.5
2016-Jun-19 06:26N 34°23' E 134°60'1112.5
2016-Jun-19 05:33N 34°33' E 135°06'  

Dump ship's entire track history